Terminal Aerodrome Forecast
Issued by NWS

Home | Current Version | Previous Version | Text Only | Print | Product List | Glossary On
Versions: 1 2 3 4 5 6 7 8 9 10 11 12 13 14 15 16 17 18 19 20 21 22 23 24 25 26 27 28 29 30 31 32 33 34 35 36 37 38 39 40 41 42 43 44 45 46 47 48 49 50
000
FTUS45 KBOU 081359 AAB
TAFAPA
TAF AMD
KAPA 081359Z 0814/0912 10005KT P6SM BKN016 OVC029
      TEMPO 0814/0815 OVC014
     FM081600 11007KT P6SM SCT016 BKN028 OVC060
     FM081700 12011KT P6SM SCT060 BKN110
     FM082200 16013KT P6SM VCTS SCT060CB BKN100
      TEMPO 0822/0902 VRB20G30KT TSRA BKN060CB
     FM090300 17011KT P6SM SCT070 BKN120
     FM090600 19009KT P6SM FEW120 SCT200=

USA.gov is the U.S. government's official web portal to all federal, state and local government web resources and services.